West Liberty, West Virginia
Current Conditions -  °F | °C
As of 3:53 PM on Friday 24 Oct 2014 (Local Time) from KHLG Reporting Station
Clear Clear  
Wind Chill: 60°   Ceiling: Unl
Heat Index: 60°   Visibility: 10mi
Dew Point: 40°   Wind: 8mph
Humidity: 47%   Direction: 300°WNW
Pressure: 30.02"   Gusts: NA
Location:  40.17°N, 80.59°W
Report Text: KHLG 241953Z 30007KT 10SM CLR 16/04 A3002 RMK AO2 SLP171 T01560044
Loading
Personal Weather Stations






























Interactive Weather Map
Tropical Storm Tracking
New forecast layout! Learn more

10-Day Weather Forecast

Advertisements
Track Severe Weather on mobile